Time;durP1;ratioP1;P1;durP2;ratioP2;P2;SDS_P1;SDS_P2;PMS_P1;PMS_P2;Temp;Humidity;BMP_temperature;BMP_pressure;BME280_temperature;BME280_humidity;BME280_pressure;Samples;Min_cycle;Max_cycle;Signal;HPM_P1;HPM_P2
2022/06/10 00:00:00;;;;;;;22.63;16.08;;;11.60;99.90;;;;;;5001306;28;20129;-54
2022/06/10 00:02:25;;;;;;;25.92;17.63;;;11.60;99.90;;;;;;5007055;28;20377;-57
2022/06/10 00:04:51;;;;;;;25.33;16.75;;;11.60;99.90;;;;;;4998050;28;20037;-56
2022/06/10 00:07:17;;;;;;;20.63;15.75;;;11.60;99.90;;;;;;4998407;28;20033;-53
2022/06/10 00:09:42;;;;;;;22.50;16.83;;;11.60;99.90;;;;;;4997426;28;20037;-59
2022/06/10 00:12:09;;;;;;;22.02;15.43;;;11.60;99.90;;;;;;4995947;28;20112;-52
2022/06/10 00:14:35;;;;;;;26.75;15.48;;;11.50;99.90;;;;;;4997279;28;20030;-59
2022/06/10 00:17:00;;;;;;;19.55;14.25;;;11.50;99.90;;;;;;5004481;28;20644;-59
2022/06/10 00:19:27;;;;;;;21.38;15.52;;;11.40;99.90;;;;;;5009749;28;20032;-60
2022/06/10 00:21:52;;;;;;;22.13;16.10;;;11.40;99.90;;;;;;5011824;28;20014;-58
2022/06/10 00:24:18;;;;;;;22.88;16.15;;;11.30;99.90;;;;;;5003580;28;20487;-58
2022/06/10 00:26:43;;;;;;;20.77;16.10;;;11.30;99.90;;;;;;5011566;28;20037;-58
2022/06/10 00:29:09;;;;;;;20.23;16.02;;;11.30;99.90;;;;;;5010997;28;20145;-59
2022/06/10 00:31:34;;;;;;;30.02;17.65;;;11.30;99.90;;;;;;5011488;28;21557;-60
2022/06/10 00:34:00;;;;;;;23.23;17.85;;;11.30;99.90;;;;;;4993624;28;20061;-57
2022/06/10 00:36:26;;;;;;;23.92;16.30;;;11.30;99.90;;;;;;5011574;28;20038;-58
2022/06/10 00:38:51;;;;;;;21.95;16.33;;;11.30;99.90;;;;;;5011512;28;20065;-59
2022/06/10 00:41:18;;;;;;;21.10;16.30;;;11.30;99.90;;;;;;5005013;28;20022;-60
2022/06/10 00:43:43;;;;;;;30.85;17.33;;;11.30;99.90;;;;;;5011880;28;20022;-59
2022/06/10 00:46:30;;;;;;;20.13;15.80;;;11.20;99.90;;;;;;4986603;28;20040;-57
2022/06/10 00:49:09;;;;;;;28.45;17.35;;;11.20;99.90;;;;;;5010374;28;20022;-58
2022/06/10 00:51:36;;;;;;;21.52;15.73;;;11.20;99.90;;;;;;5005232;28;20044;-58
2022/06/10 00:54:26;;;;;;;21.35;16.55;;;11.10;99.90;;;;;;4995634;28;20026;-57
2022/06/10 00:57:16;;;;;;;21.67;16.85;;;11.10;99.90;;;;;;5005903;28;20030;-60
2022/06/10 00:59:54;;;;;;;24.63;17.60;;;11.10;99.90;;;;;;5010175;28;20030;-58
2022/06/10 01:02:26;;;;;;;27.98;15.35;;;11.10;99.90;;;;;;5009298;28;20076;-56
2022/06/10 01:04:57;;;;;;;27.80;18.38;;;11.00;99.90;;;;;;5005592;28;20030;-54
2022/06/10 01:07:29;;;;;;;26.40;17.73;;;11.00;99.90;;;;;;5010587;28;20018;-59
2022/06/10 01:09:55;;;;;;;24.20;17.27;;;11.00;99.90;;;;;;5010312;28;20033;-53
2022/06/10 01:12:57;;;;;;;24.88;17.90;;;11.00;99.90;;;;;;5009727;28;20069;-57
2022/06/10 01:15:47;;;;;;;24.98;17.63;;;11.00;99.90;;;;;;5008986;28;20030;-57
2022/06/10 01:18:24;;;;;;;27.17;17.45;;;11.00;99.90;;;;;;5004571;28;20032;-58
2022/06/10 01:21:12;;;;;;;27.20;17.58;;;11.00;99.90;;;;;;5010682;28;21541;-54
2022/06/10 01:23:57;;;;;;;26.00;16.45;;;10.90;99.90;;;;;;5010333;28;20120;-56
2022/06/10 01:30:06;;;;;;;28.63;16.95;;;10.90;99.90;;;;;;5009733;28;20096;-58
2022/06/10 01:32:34;;;;;;;26.15;17.23;;;10.90;99.90;;;;;;4992441;28;20054;-57
2022/06/10 01:35:15;;;;;;;27.77;17.48;;;10.90;99.90;;;;;;4990574;28;20049;-59
2022/06/10 01:37:52;;;;;;;25.55;17.05;;;10.90;99.90;;;;;;4989828;28;20019;-59
2022/06/10 01:40:42;;;;;;;19.08;16.27;;;10.80;99.90;;;;;;4990218;28;20089;-56
2022/06/10 01:43:21;;;;;;;20.85;16.50;;;10.80;99.90;;;;;;4987825;28;20030;-53
2022/06/10 01:46:05;;;;;;;27.42;16.65;;;10.70;99.90;;;;;;4988523;28;20031;-59
2022/06/10 01:48:47;;;;;;;26.15;17.65;;;10.70;99.90;;;;;;4989243;28;20559;-58
2022/06/10 01:51:18;;;;;;;28.08;18.40;;;10.70;99.90;;;;;;4988487;28;20030;-56
2022/06/10 01:53:53;;;;;;;27.08;18.75;;;10.70;99.90;;;;;;4982872;28;20040;-59
2022/06/10 01:56:39;;;;;;;29.73;20.23;;;10.70;99.90;;;;;;4986416;28;20076;-57
2022/06/10 01:59:30;;;;;;;26.38;18.00;;;10.70;99.90;;;;;;4987990;28;20030;-57
2022/06/10 02:02:20;;;;;;;29.95;16.63;;;10.60;99.90;;;;;;4988926;28;20089;-58
2022/06/10 02:05:16;;;;;;;24.13;17.60;;;10.60;99.90;;;;;;4987563;28;20045;-59
2022/06/10 02:08:15;;;;;;;25.75;17.73;;;10.50;99.90;;;;;;4990037;28;20034;-56
2022/06/10 02:10:53;;;;;;;28.25;18.02;;;10.50;99.90;;;;;;4979109;28;20504;-56
2022/06/10 02:13:25;;;;;;;30.92;18.63;;;10.50;99.90;;;;;;4990236;28;20027;-58
2022/06/10 02:15:54;;;;;;;23.20;16.77;;;10.50;99.90;;;;;;4989972;28;20093;-57
2022/06/10 02:18:38;;;;;;;22.08;16.60;;;10.40;99.90;;;;;;4990766;28;20030;-59
2022/06/10 02:21:06;;;;;;;;;;;10.40;99.90;;;;;;4988759;28;20026;-54
2022/06/10 02:23:37;;;;;;;21.45;15.60;;;10.40;99.90;;;;;;4986812;28;20303;-59
2022/06/10 02:26:04;;;;;;;27.13;18.52;;;10.40;99.90;;;;;;4989226;28;20472;-61
2022/06/10 02:28:41;;;;;;;28.98;19.45;;;10.40;99.90;;;;;;4988254;28;20398;-57
2022/06/10 02:31:13;;;;;;;27.05;18.65;;;10.40;99.90;;;;;;4986337;28;20101;-59
2022/06/10 02:33:39;;;;;;;26.08;19.15;;;10.40;99.90;;;;;;4971907;28;20061;-60
2022/06/10 02:36:08;;;;;;;28.42;17.50;;;10.40;99.90;;;;;;4989590;28;20026;-59
2022/06/10 02:38:51;;;;;;;26.33;17.95;;;10.40;99.90;;;;;;4989431;28;20014;-60
2022/06/10 02:41:23;;;;;;;28.05;17.85;;;10.30;99.90;;;;;;4989283;28;20026;-51
2022/06/10 02:43:56;;;;;;;29.17;20.02;;;10.30;99.90;;;;;;4987770;28;20065;-60
2022/06/10 02:46:43;;;;;;;26.80;19.52;;;10.30;99.90;;;;;;4987417;28;20061;-57
2022/06/10 02:49:14;;;;;;;28.63;19.20;;;10.30;99.90;;;;;;4985565;28;20054;-60
2022/06/10 02:51:41;;;;;;;27.83;19.52;;;10.30;99.90;;;;;;5003848;28;20023;-58
2022/06/10 02:54:15;;;;;;;28.42;19.88;;;10.30;99.90;;;;;;4986429;28;20061;-57
2022/06/10 02:56:40;;;;;;;;;;;10.30;99.90;;;;;;4988936;28;20054;-59
2022/06/10 03:01:59;;;;;;;27.92;19.83;;;10.30;99.90;;;;;;4985526;28;20029;-58
2022/06/10 03:04:44;;;;;;;26.73;17.02;;;10.30;99.90;;;;;;4990053;28;20046;-58
2022/06/10 03:07:18;;;;;;;24.50;18.83;;;10.30;99.90;;;;;;4989805;28;20026;-59
2022/06/10 03:09:58;;;;;;;23.50;18.58;;;10.30;99.90;;;;;;4989541;28;20030;-60
2022/06/10 03:12:43;;;;;;;29.67;17.27;;;10.30;99.90;;;;;;4989996;28;20015;-59
2022/06/10 03:15:33;;;;;;;27.60;18.90;;;10.20;99.90;;;;;;4988567;28;20101;-60
2022/06/10 03:17:58;;;;;;;23.90;16.88;;;10.20;99.90;;;;;;4989599;28;20342;-60
2022/06/10 03:20:33;;;;;;;29.83;19.23;;;10.20;99.90;;;;;;4992332;28;20033;-58
2022/06/10 03:23:18;;;;;;;24.92;17.88;;;10.20;99.90;;;;;;4992153;28;20019;-60
2022/06/10 03:26:00;;;;;;;23.77;17.75;;;10.20;99.90;;;;;;4992046;28;20027;-58
2022/06/10 03:28:55;;;;;;;21.65;15.98;;;10.30;99.90;;;;;;4992848;28;20373;-60
2022/06/10 03:31:32;;;;;;;22.42;16.95;;;10.30;99.90;;;;;;4989177;28;20027;-55
2022/06/10 03:34:15;;;;;;;25.00;18.00;;;10.30;99.90;;;;;;4977627;28;20069;-56
2022/06/10 03:36:43;;;;;;;24.13;17.25;;;10.30;99.90;;;;;;4992897;28;20053;-55
2022/06/10 03:39:09;;;;;;;27.60;15.68;;;10.30;99.90;;;;;;4996157;28;20030;-58
2022/06/10 03:41:53;;;;;;;22.58;15.40;;;10.30;99.90;;;;;;4997105;28;20045;-59
2022/06/10 03:44:20;;;;;;;24.13;15.98;;;10.30;99.90;;;;;;4994781;28;20520;-54
2022/06/10 03:46:49;;;;;;;21.35;15.07;;;10.40;99.90;;;;;;4989485;28;20479;-58
2022/06/10 03:49:17;;;;;;;20.70;14.38;;;10.50;99.90;;;;;;4984201;28;20030;-59
2022/06/10 03:51:44;;;;;;;17.35;14.45;;;10.50;99.90;;;;;;4984326;28;20034;-58
2022/06/10 03:54:17;;;;;;;23.80;15.02;;;10.50;99.90;;;;;;4986154;28;20042;-56
2022/06/10 03:56:42;;;;;;;18.10;13.80;;;10.60;99.90;;;;;;4989232;28;20034;-58
2022/06/10 03:59:09;;;;;;;17.35;14.20;;;10.60;99.90;;;;;;4995798;28;20428;-59
2022/06/10 04:01:35;;;;;;;16.60;12.55;;;10.70;99.90;;;;;;5000705;28;20053;-59
2022/06/10 04:04:00;;;;;;;19.13;13.38;;;10.70;99.90;;;;;;5001633;28;20054;-53
2022/06/10 04:06:26;;;;;;;16.58;12.30;;;10.80;99.90;;;;;;4991336;28;20069;-57
2022/06/10 04:08:52;;;;;;;18.38;12.30;;;10.80;99.90;;;;;;4992983;28;20027;-58
2022/06/10 04:11:18;;;;;;;18.63;11.77;;;10.90;99.90;;;;;;4990880;28;20513;-55
2022/06/10 04:13:44;;;;;;;15.57;11.30;;;11.00;99.90;;;;;;4984687;28;20019;-57
2022/06/10 04:16:11;;;;;;;19.15;11.55;;;11.10;99.90;;;;;;4986700;28;20077;-57
2022/06/10 04:18:37;;;;;;;16.17;11.52;;;11.20;99.90;;;;;;5012503;28;20121;-58
2022/06/10 04:21:04;;;;;;;15.55;10.32;;;11.30;99.90;;;;;;4989477;28;20564;-57
2022/06/10 04:23:29;;;;;;;13.23;10.63;;;11.40;99.90;;;;;;4990388;28;20062;-54
2022/06/10 04:25:55;;;;;;;14.25;10.30;;;11.50;99.90;;;;;;4990904;28;20073;-57
2022/06/10 04:28:21;;;;;;;16.17;9.48;;;11.60;99.90;;;;;;4995279;28;20038;-59
2022/06/10 04:30:49;;;;;;;12.90;8.98;;;11.80;99.90;;;;;;4998740;28;20034;-52
2022/06/10 04:33:15;;;;;;;7.55;6.50;;;12.20;99.90;;;;;;4981758;28;20615;-59
2022/06/10 04:35:44;;;;;;;9.15;5.65;;;13.40;99.90;;;;;;5010697;28;20029;-58
2022/06/10 04:38:13;;;;;;;5.53;4.05;;;14.70;99.90;;;;;;5010754;28;20044;-55
2022/06/10 04:40:39;;;;;;;7.45;4.68;;;15.70;99.90;;;;;;5009103;28;20113;-57
2022/06/10 04:43:06;;;;;;;8.73;3.72;;;16.60;99.90;;;;;;5010631;28;20570;-57
2022/06/10 04:45:36;;;;;;;5.78;3.53;;;17.80;99.90;;;;;;5010091;28;20099;-58
2022/06/10 04:48:02;;;;;;;4.57;3.10;;;18.40;99.90;;;;;;5011873;28;20030;-59
2022/06/10 04:50:28;;;;;;;7.20;2.63;;;19.20;99.90;;;;;;5010433;28;20034;-59
2022/06/10 04:52:55;;;;;;;5.97;2.53;;;19.80;99.90;;;;;;5007801;28;20510;-58
2022/06/10 04:55:22;;;;;;;6.05;2.65;;;20.20;99.70;;;;;;5011277;28;20034;-59
2022/06/10 04:57:48;;;;;;;4.60;2.80;;;20.70;99.10;;;;;;5010049;28;20029;-55
2022/06/10 05:00:32;;;;;;;5.72;2.35;;;20.90;97.90;;;;;;5008423;28;20084;-59
2022/06/10 05:02:59;;;;;;;4.65;2.33;;;21.40;96.70;;;;;;5008800;28;20022;-58
2022/06/10 05:05:24;;;;;;;6.78;2.83;;;21.90;95.30;;;;;;5010295;28;20038;-57
2022/06/10 05:07:50;;;;;;;4.72;2.55;;;22.20;94.00;;;;;;5012089;28;20105;-58
2022/06/10 05:10:17;;;;;;;6.50;2.35;;;22.30;93.60;;;;;;5011391;28;20034;-59
2022/06/10 05:12:46;;;;;;;9.45;2.53;;;22.80;92.50;;;;;;5010776;28;20030;-58
2022/06/10 05:15:16;;;;;;;3.15;1.92;;;23.00;91.20;;;;;;5010567;28;20033;-59
2022/06/10 05:17:42;;;;;;;5.05;1.95;;;23.80;90.80;;;;;;5010814;28;20036;-59
2022/06/10 05:20:14;;;;;;;4.00;2.05;;;23.70;87.80;;;;;;5006393;28;20053;-59
2022/06/10 05:22:39;;;;;;;5.40;2.30;;;23.90;90.20;;;;;;5010843;28;20126;-58
2022/06/10 05:25:06;;;;;;;5.63;2.72;;;24.10;87.30;;;;;;5007186;28;20100;-58
2022/06/10 05:27:31;;;;;;;6.60;2.30;;;24.30;86.30;;;;;;5009864;28;20030;-58
2022/06/10 05:29:57;;;;;;;7.53;2.30;;;25.00;85.30;;;;;;5010147;28;20383;-58
2022/06/10 05:32:22;;;;;;;3.40;1.88;;;25.30;84.30;;;;;;5010369;28;20057;-60
2022/06/10 05:34:48;;;;;;;4.07;2.28;;;25.80;82.20;;;;;;4992761;28;20041;-59
2022/06/10 05:37:21;;;;;;;8.45;2.20;;;26.30;76.90;;;;;;5009666;28;20688;-58
2022/06/10 05:39:47;;;;;;;7.43;1.73;;;26.10;80.70;;;;;;5009401;28;20045;-59
2022/06/10 05:42:13;;;;;;;3.85;1.65;;;26.90;77.10;;;;;;5008833;28;20514;-60
2022/06/10 05:44:42;;;;;;;4.10;1.67;;;27.40;74.20;;;;;;5008618;28;20038;-60
2022/06/10 05:47:10;;;;;;;5.22;1.95;;;28.50;71.50;;;;;;5004927;28;20526;-57
2022/06/10 05:49:39;;;;;;;4.90;1.70;;;28.60;69.30;;;;;;5008605;28;20404;-60
2022/06/10 05:52:07;;;;;;;6.93;2.13;;;27.60;70.50;;;;;;5006383;28;20076;-58
2022/06/10 05:54:35;;;;;;;5.15;1.80;;;27.80;71.60;;;;;;5008327;28;20137;-58
2022/06/10 05:57:00;;;;;;;5.18;2.03;;;27.10;70.10;;;;;;5008712;28;20092;-60
2022/06/10 05:59:29;;;;;;;6.53;2.10;;;27.90;73.20;;;;;;5010029;28;20487;-61
2022/06/10 06:01:56;;;;;;;5.22;1.75;;;28.80;69.20;;;;;;5007961;28;20029;-59
2022/06/10 06:04:22;;;;;;;3.70;2.20;;;29.00;68.10;;;;;;5008015;28;20042;-61
2022/06/10 06:06:48;;;;;;;5.10;1.90;;;30.10;65.90;;;;;;5009299;28;20033;-61
2022/06/10 06:09:14;;;;;;;8.23;2.92;;;29.30;66.10;;;;;;5009017;28;20491;-60
2022/06/10 06:11:41;;;;;;;2.90;1.55;;;29.30;65.40;;;;;;5009380;28;20533;-60
2022/06/10 06:14:07;;;;;;;4.90;1.92;;;28.60;66.60;;;;;;5010823;28;20041;-59
2022/06/10 06:16:34;;;;;;;9.50;2.08;;;28.10;67.10;;;;;;5004861;28;20021;-59
2022/06/10 06:18:59;;;;;;;5.18;1.90;;;26.40;72.40;;;;;;5008743;28;20147;-59
2022/06/10 06:21:25;;;;;;;4.82;1.88;;;25.90;73.30;;;;;;5007072;28;20499;-57
2022/06/10 06:23:50;;;;;;;9.82;2.20;;;25.30;74.40;;;;;;5008307;28;20111;-58
2022/06/10 06:26:16;;;;;;;5.22;1.90;;;25.10;76.00;;;;;;5008864;28;20097;-60
2022/06/10 06:28:42;;;;;;;3.50;2.00;;;24.20;77.80;;;;;;5010151;28;20065;-59
2022/06/10 06:31:09;;;;;;;5.10;2.00;;;23.70;81.20;;;;;;5010102;28;20125;-59
2022/06/10 06:33:35;;;;;;;6.90;2.15;;;23.90;81.60;;;;;;4991753;28;20496;-59
2022/06/10 06:36:01;;;;;;;4.15;1.80;;;23.50;83.40;;;;;;5008841;28;20034;-61
2022/06/10 06:38:28;;;;;;;3.85;1.52;;;23.80;83.30;;;;;;5009961;28;20558;-58
2022/06/10 06:40:53;;;;;;;6.10;1.95;;;23.50;84.60;;;;;;5009904;28;20484;-61
2022/06/10 06:43:19;;;;;;;5.82;1.83;;;23.70;84.00;;;;;;5009342;28;20064;-54
2022/06/10 06:45:45;;;;;;;6.88;1.83;;;23.70;83.80;;;;;;5007950;28;20029;-58
2022/06/10 06:48:11;;;;;;;4.07;1.25;;;23.50;86.40;;;;;;5008672;28;20088;-60
2022/06/10 06:50:43;;;;;;;6.05;2.05;;;23.00;84.00;;;;;;5004163;28;20088;-60
2022/06/10 06:53:09;;;;;;;4.35;2.10;;;23.00;85.80;;;;;;5008563;28;20033;-59
2022/06/10 06:55:36;;;;;;;6.10;1.40;;;23.60;86.40;;;;;;5006013;28;20034;-58
2022/06/10 06:58:02;;;;;;;4.63;1.48;;;24.60;80.40;;;;;;5010223;28;20060;-59
2022/06/10 07:00:28;;;;;;;6.82;2.15;;;25.10;78.10;;;;;;5006735;28;20032;-57
2022/06/10 07:02:55;;;;;;;4.55;1.55;;;24.70;80.80;;;;;;5008113;28;20395;-60
2022/06/10 07:05:20;;;;;;;3.83;1.40;;;24.00;79.30;;;;;;5007279;28;20034;-54
2022/06/10 07:07:46;;;;;;;6.22;1.33;;;23.70;81.90;;;;;;5009855;28;20108;-59
2022/06/10 07:10:14;;;;;;;5.60;1.70;;;24.00;81.60;;;;;;5008332;28;20121;-58
2022/06/10 07:12:40;;;;;;;4.63;1.58;;;23.70;81.50;;;;;;5010290;28;20040;-60
2022/06/10 07:15:06;;;;;;;6.03;1.88;;;23.80;83.10;;;;;;5002223;28;20027;-56
2022/06/10 07:17:32;;;;;;;7.57;1.70;;;24.60;80.40;;;;;;5008725;28;20042;-61
2022/06/10 07:19:59;;;;;;;7.55;2.08;;;25.00;79.00;;;;;;5007408;28;20033;-59
2022/06/10 07:22:26;;;;;;;6.88;1.83;;;24.90;79.90;;;;;;5007769;28;20064;-59
2022/06/10 07:24:53;;;;;;;4.80;1.48;;;23.90;80.90;;;;;;5008472;28;20030;-59
2022/06/10 07:27:19;;;;;;;6.55;1.45;;;23.50;83.80;;;;;;5005402;28;20156;-57
2022/06/10 07:29:45;;;;;;;5.72;2.15;;;23.60;84.50;;;;;;5008561;28;20030;-59
2022/06/10 07:32:10;;;;;;;7.85;1.75;;;22.60;85.90;;;;;;5008884;28;20045;-56
2022/06/10 07:34:36;;;;;;;11.00;1.80;;;21.90;85.50;;;;;;4988537;28;20456;-58
2022/06/10 07:37:03;;;;;;;6.25;1.90;;;21.50;90.10;;;;;;5004838;28;20552;-59
2022/06/10 07:39:28;;;;;;;5.18;1.35;;;21.10;92.20;;;;;;4996318;28;20515;-58
2022/06/10 07:41:57;;;;;;;4.78;1.40;;;21.00;91.10;;;;;;5005480;28;20025;-59
2022/06/10 07:44:27;;;;;;;4.78;1.30;;;20.80;89.20;;;;;;5008698;28;20046;-58
2022/06/10 07:46:56;;;;;;;10.10;2.45;;;20.60;91.50;;;;;;5006624;28;20488;-60
2022/06/10 07:49:21;;;;;;;8.40;1.80;;;20.40;92.40;;;;;;5010942;28;20495;-53
2022/06/10 07:51:47;;;;;;;5.60;1.75;;;20.40;92.80;;;;;;5008331;28;20033;-58
2022/06/10 07:54:14;;;;;;;8.10;2.05;;;20.50;93.50;;;;;;5007819;28;20048;-59
2022/06/10 07:56:40;;;;;;;11.85;2.95;;;20.80;93.20;;;;;;5007340;28;20026;-58
2022/06/10 07:59:07;;;;;;;9.35;1.77;;;21.10;91.90;;;;;;5008410;28;20021;-59
2022/06/10 08:01:33;;;;;;;7.20;2.05;;;21.30;92.60;;;;;;5006261;28;20030;-55
2022/06/10 08:03:59;;;;;;;7.07;1.75;;;21.20;91.90;;;;;;5010069;28;20021;-59
2022/06/10 08:06:27;;;;;;;9.88;1.75;;;21.20;91.30;;;;;;5010281;28;20459;-58
2022/06/10 08:08:53;;;;;;;6.05;1.50;;;21.10;93.00;;;;;;5012436;28;20108;-58
2022/06/10 08:11:20;;;;;;;7.60;2.58;;;21.40;92.40;;;;;;5011285;28;20037;-54
2022/06/10 08:13:46;;;;;;;6.80;1.85;;;21.40;91.70;;;;;;5012121;28;20025;-54
2022/06/10 08:16:13;;;;;;;8.48;1.80;;;21.40;91.00;;;;;;5010365;28;20033;-55
2022/06/10 08:18:39;;;;;;;12.32;1.70;;;21.30;92.50;;;;;;5011138;28;20100;-60
2022/06/10 08:23:50;;;;;;;5.72;2.00;;;21.80;92.60;;;;;;5005468;28;20025;-59
2022/06/10 08:26:17;;;;;;;4.80;1.60;;;21.80;93.60;;;;;;5011586;28;20025;-57
2022/06/10 08:28:45;;;;;;;8.48;1.98;;;22.00;91.30;;;;;;5012594;28;20042;-59
2022/06/10 08:31:10;;;;;;;8.32;1.60;;;22.40;90.80;;;;;;5012120;28;20164;-59
2022/06/10 08:33:36;;;;;;;8.70;1.92;;;22.60;90.30;;;;;;4993771;28;20778;-58
2022/06/10 08:36:03;;;;;;;6.18;2.08;;;22.30;87.90;;;;;;5026766;28;20033;-58
2022/06/10 08:38:30;;;;;;;7.38;2.00;;;22.00;90.40;;;;;;5017949;28;20048;-57
2022/06/10 08:41:26;;;;;;;8.10;1.83;;;22.20;90.80;;;;;;5009619;28;20088;-60
2022/06/10 08:43:57;;;;;;;15.48;2.10;;;23.30;88.10;;;;;;4995146;28;20421;-59
2022/06/10 08:46:47;;;;;;;7.00;1.75;;;24.10;88.40;;;;;;5005609;28;20100;-60
2022/06/10 08:49:32;;;;;;;10.05;1.80;;;25.30;83.40;;;;;;5008245;28;20077;-60
2022/06/10 08:52:31;;;;;;;6.88;1.95;;;25.90;78.30;;;;;;5010843;28;20056;-59
2022/06/10 08:55:18;;;;;;;8.18;1.95;;;26.40;78.40;;;;;;5010792;28;20037;-58
2022/06/10 08:57:46;;;;;;;4.75;1.45;;;27.00;75.40;;;;;;5010331;28;20025;-59
2022/06/10 09:00:29;;;;;;;5.55;1.73;;;27.30;74.90;;;;;;5010245;28;20388;-57
2022/06/10 09:02:54;;;;;;;;;;;26.60;74.00;;;;;;5016041;28;20025;-59
2022/06/10 09:05:28;;;;;;;6.60;2.00;;;26.60;74.60;;;;;;5008077;28;19974;-56
2022/06/10 09:08:22;;;;;;;5.93;1.48;;;27.00;73.10;;;;;;5009608;28;20026;-60
2022/06/10 09:11:09;;;;;;;6.97;2.13;;;26.80;71.70;;;;;;5006072;28;20041;-60
2022/06/10 09:13:49;;;;;;;8.82;2.55;;;27.60;71.30;;;;;;5009750;28;20033;-60
2022/06/10 09:16:28;;;;;;;4.88;1.90;;;26.90;72.80;;;;;;5006665;28;20116;-60
2022/06/10 09:19:05;;;;;;;8.18;1.70;;;27.60;72.10;;;;;;5007629;28;20025;-59
2022/06/10 09:21:43;;;;;;;6.60;1.58;;;27.70;71.10;;;;;;5024484;28;20038;-58
2022/06/10 09:24:33;;;;;;;6.88;2.15;;;27.70;69.70;;;;;;5009811;28;20026;-57
2022/06/10 09:27:06;;;;;;;6.45;2.08;;;27.40;72.60;;;;;;5008225;28;20026;-61
2022/06/10 09:29:32;;;;;;;7.55;1.98;;;27.50;72.80;;;;;;5014470;28;20021;-60
2022/06/10 09:32:10;;;;;;;5.65;1.73;;;27.90;70.20;;;;;;5020291;28;20075;-61
2022/06/10 09:34:39;;;;;;;7.47;2.35;;;28.20;72.50;;;;;;4999382;28;20041;-61
2022/06/10 09:37:22;;;;;;;9.70;2.35;;;28.20;71.70;;;;;;5014792;28;20372;-61
2022/06/10 09:43:36;;;;;;;10.70;1.98;;;27.60;71.80;;;;;;5010697;28;20418;-60
2022/06/10 09:46:13;;;;;;;9.63;2.28;;;27.10;71.20;;;;;;5001718;28;20486;-59
2022/06/10 09:49:10;;;;;;;10.13;1.70;;;27.10;71.00;;;;;;5002594;28;20029;-60
2022/06/10 09:51:58;;;;;;;11.48;2.28;;;26.00;73.30;;;;;;5004026;28;20048;-60
2022/06/10 09:55:04;;;;;;;10.10;2.05;;;25.50;75.40;;;;;;5010941;28;20036;-59
2022/06/10 09:57:32;;;;;;;8.73;2.15;;;25.10;75.50;;;;;;5001602;28;20452;-58
2022/06/10 10:00:13;;;;;;;14.15;2.25;;;24.30;78.80;;;;;;5010895;28;20221;-59
2022/06/10 10:03:21;;;;;;;10.02;1.80;;;23.80;78.40;;;;;;5006172;28;20022;-57
2022/06/10 10:06:24;;;;;;;7.95;2.20;;;23.40;79.40;;;;;;5004553;28;20030;-57
2022/06/10 10:09:07;;;;;;;7.15;1.83;;;23.10;82.60;;;;;;5001048;28;20117;-59
2022/06/10 10:11:58;;;;;;;6.60;1.60;;;22.70;82.60;;;;;;4997074;28;20088;-59
2022/06/10 10:15:01;;;;;;;7.55;1.70;;;22.70;85.00;;;;;;5003205;28;20033;-59
2022/06/10 10:17:52;;;;;;;7.85;1.80;;;22.70;85.70;;;;;;5010242;28;20562;-60
2022/06/10 10:20:24;;;;;;;7.65;1.60;;;22.90;85.60;;;;;;5008616;28;20037;-59
2022/06/10 10:23:08;;;;;;;7.55;2.13;;;23.00;84.90;;;;;;5009919;28;20018;-59
2022/06/10 10:25:34;;;;;;;7.63;1.80;;;23.10;82.80;;;;;;5006715;28;20030;-59
2022/06/10 10:28:06;;;;;;;10.02;1.80;;;23.30;83.80;;;;;;5008467;28;20121;-59
2022/06/10 10:30:38;;;;;;;4.22;1.48;;;23.70;84.00;;;;;;5007502;28;20022;-58
2022/06/10 10:33:09;;;;;;;5.95;1.25;;;24.60;81.80;;;;;;5008607;28;20037;-60
2022/06/10 10:35:49;;;;;;;9.77;1.70;;;25.20;76.60;;;;;;4979471;28;20070;-60
2022/06/10 10:38:37;;;;;;;4.93;1.30;;;25.60;77.80;;;;;;4991092;28;20388;-61
2022/06/10 10:41:30;;;;;;;4.88;1.40;;;25.70;75.20;;;;;;4985007;28;20760;-60
2022/06/10 10:44:05;;;;;;;5.93;1.38;;;25.20;76.30;;;;;;4991539;28;20034;-59
2022/06/10 10:46:33;;;;;;;6.40;1.83;;;25.20;75.20;;;;;;5000699;28;20030;-60
2022/06/10 10:49:01;;;;;;;8.50;1.95;;;25.40;76.70;;;;;;4997443;28;20022;-60
2022/06/10 10:51:41;;;;;;;8.10;2.28;;;25.70;75.60;;;;;;5002361;28;20041;-58
2022/06/10 10:54:16;;;;;;;5.53;1.58;;;25.90;75.70;;;;;;4998683;28;20034;-59
2022/06/10 10:56:47;;;;;;;6.78;2.13;;;25.90;75.80;;;;;;4986867;28;20034;-60
2022/06/10 10:59:36;;;;;;;6.88;1.23;;;25.90;75.80;;;;;;4989845;28;20030;-55
2022/06/10 11:02:40;;;;;;;7.65;1.45;;;25.90;74.60;;;;;;4994396;28;20676;-59
2022/06/10 11:05:21;;;;;;;6.97;1.30;;;25.50;74.40;;;;;;4987294;28;20038;-59
2022/06/10 11:08:20;;;;;;;10.60;1.77;;;25.70;75.70;;;;;;4986598;28;20550;-61
2022/06/10 11:10:52;;;;;;;6.88;1.63;;;25.50;76.80;;;;;;4999083;28;20042;-61
2022/06/10 11:13:30;;;;;;;6.88;1.95;;;25.10;77.00;;;;;;4993752;28;20046;-60
2022/06/10 11:16:36;;;;;;;8.15;1.70;;;25.00;78.30;;;;;;4991375;28;20109;-60
2022/06/10 11:19:05;;;;;;;5.43;1.50;;;25.30;78.40;;;;;;4986357;28;20530;-61
2022/06/10 11:21:45;;;;;;;8.95;2.40;;;25.20;78.60;;;;;;4988094;28;20130;-58
2022/06/10 11:24:18;;;;;;;7.43;1.48;;;25.30;75.00;;;;;;4988356;28;20026;-60
2022/06/10 11:26:47;;;;;;;;;;;25.80;74.60;;;;;;4989072;28;20102;-58
2022/06/10 11:29:13;;;;;;;10.43;2.47;;;26.10;75.60;;;;;;4988697;28;19905;-59
2022/06/10 11:31:45;;;;;;;4.85;1.55;;;25.90;74.00;;;;;;4988816;28;20069;-58
2022/06/10 11:34:24;;;;;;;5.38;1.20;;;25.80;73.80;;;;;;4961753;28;20073;-59
2022/06/10 11:36:52;;;;;;;4.93;1.50;;;25.50;75.50;;;;;;4986583;28;20081;-58
2022/06/10 11:39:31;;;;;;;3.75;1.33;;;25.00;77.70;;;;;;4992490;28;20030;-57
2022/06/10 11:42:07;;;;;;;9.80;1.70;;;24.90;78.80;;;;;;4993709;28;20046;-60
2022/06/10 11:44:42;;;;;;;5.88;1.50;;;24.70;77.70;;;;;;5001167;28;20048;-59
2022/06/10 11:47:30;;;;;;;8.98;2.05;;;24.80;78.50;;;;;;4999560;28;20058;-59
2022/06/10 11:50:03;;;;;;;5.60;1.45;;;24.70;77.60;;;;;;4994392;28;20022;-58
2022/06/10 11:52:44;;;;;;;11.30;1.95;;;24.80;80.20;;;;;;5005101;28;20030;-58
2022/06/10 11:55:18;;;;;;;8.85;2.22;;;24.80;80.20;;;;;;4989442;28;20034;-61
2022/06/10 12:01:02;;;;;;;6.18;1.92;;;24.80;77.10;;;;;;4995075;28;20045;-60
2022/06/10 12:03:52;;;;;;;9.40;1.83;;;25.10;79.70;;;;;;4993317;28;20057;-59
2022/06/10 12:06:44;;;;;;;8.55;1.90;;;25.30;78.90;;;;;;4996628;28;20026;-60
2022/06/10 12:09:21;;;;;;;7.85;1.70;;;25.90;77.40;;;;;;4995019;28;20256;-59
2022/06/10 12:12:02;;;;;;;10.13;1.85;;;26.00;78.00;;;;;;4991650;28;20058;-61
2022/06/10 12:14:48;;;;;;;8.38;1.73;;;26.10;75.00;;;;;;5007523;28;20037;-59
2022/06/10 12:17:22;;;;;;;7.72;1.40;;;26.10;77.80;;;;;;4991162;28;20077;-59
2022/06/10 12:20:29;;;;;;;6.15;1.73;;;26.20;78.70;;;;;;5011796;28;20022;-60
2022/06/10 12:22:56;;;;;;;7.45;1.80;;;26.40;73.90;;;;;;5009481;28;20034;-60
2022/06/10 12:25:30;;;;;;;7.93;1.65;;;26.40;74.20;;;;;;4994523;28;20562;-53
2022/06/10 12:28:13;;;;;;;8.13;1.67;;;26.40;76.00;;;;;;4990348;28;20030;-59
2022/06/10 12:30:46;;;;;;;7.80;1.98;;;26.40;74.10;;;;;;4986311;28;20041;-61
2022/06/10 12:33:26;;;;;;;;;;;26.30;73.80;;;;;;4999320;28;20034;-60
2022/06/10 12:35:53;;;;;;;10.77;1.40;;;26.10;76.20;;;;;;4984615;28;19979;-58
2022/06/10 12:38:35;;;;;;;11.88;1.65;;;25.90;75.30;;;;;;4993216;28;20026;-59
2022/06/10 12:41:21;;;;;;;4.55;1.55;;;25.70;76.60;;;;;;4987835;28;20027;-60
2022/06/10 12:43:54;;;;;;;5.50;1.48;;;25.60;77.20;;;;;;4987935;28;20030;-60
2022/06/10 12:46:52;;;;;;;;;;;25.30;77.40;;;;;;4990940;28;20030;-57
2022/06/10 12:49:39;;;;;;;4.38;1.17;;;25.30;78.70;;;;;;4999761;28;19910;-58
2022/06/10 12:52:50;;;;;;;4.47;1.50;;;25.30;76.40;;;;;;4981891;28;20584;-58
2022/06/10 12:55:25;;;;;;;9.93;1.55;;;25.60;75.20;;;;;;4981864;28;20061;-57
2022/06/10 12:57:51;;;;;;;9.35;1.50;;;26.00;76.20;;;;;;4976402;28;20019;-60
2022/06/10 13:00:17;;;;;;;6.55;1.52;;;25.90;75.60;;;;;;4977945;28;20062;-57
2022/06/10 13:02:52;;;;;;;11.07;1.60;;;26.00;74.10;;;;;;4974760;28;20027;-57
2022/06/10 13:05:33;;;;;;;6.80;1.63;;;26.60;75.50;;;;;;4980306;28;20042;-59
2022/06/10 13:07:59;;;;;;;8.55;1.38;;;26.70;74.70;;;;;;4990032;28;20057;-54
2022/06/10 13:10:45;;;;;;;6.35;1.50;;;27.00;75.60;;;;;;4977799;28;20598;-58
2022/06/10 13:13:18;;;;;;;6.65;1.65;;;26.40;74.70;;;;;;4975690;28;20039;-58
2022/06/10 13:15:44;;;;;;;9.23;1.73;;;26.50;73.40;;;;;;4979941;28;20034;-56
2022/06/10 13:18:28;;;;;;;11.48;2.10;;;25.80;74.00;;;;;;4983266;28;20030;-60
2022/06/10 13:20:54;;;;;;;9.18;1.52;;;25.90;73.80;;;;;;4990065;28;20050;-58
2022/06/10 13:23:26;;;;;;;5.22;1.38;;;26.10;76.30;;;;;;4984123;28;20026;-57
2022/06/10 13:26:06;;;;;;;6.28;1.88;;;26.10;74.90;;;;;;4985099;28;20026;-56
2022/06/10 13:28:38;;;;;;;11.05;1.60;;;25.90;74.90;;;;;;4986530;28;20034;-60